createdAt,value
2018-10-21T00:00:28.375Z,0.00
2018-10-21T00:01:28.337Z,0.00
2018-10-21T00:02:29.224Z,0.00
2018-10-21T00:03:29.131Z,0.00
2018-10-21T00:04:28.298Z,0.00
2018-10-21T00:05:28.350Z,0.00
2018-10-21T00:06:28.374Z,0.00
2018-10-21T00:07:28.266Z,0.00
2018-10-21T00:08:28.257Z,0.00
2018-10-21T00:09:28.245Z,0.00
2018-10-21T00:10:28.646Z,0.00
2018-10-21T00:11:28.328Z,0.00
2018-10-21T00:12:29.133Z,0.00
2018-10-21T00:13:28.199Z,0.00
2018-10-21T00:14:28.193Z,0.00
2018-10-21T00:15:28.386Z,0.00
2018-10-21T00:16:29.164Z,0.00
2018-10-21T00:17:29.145Z,0.00
2018-10-21T00:18:28.153Z,0.00
2018-10-21T00:19:28.135Z,0.00
2018-10-21T00:20:28.642Z,0.00
2018-10-21T00:21:28.147Z,0.00
2018-10-21T00:22:28.683Z,0.00
2018-10-21T00:23:28.101Z,0.00
2018-10-21T00:24:28.631Z,0.00
2018-10-21T00:25:28.634Z,0.00
2018-10-21T00:26:28.076Z,0.00
2018-10-21T00:27:28.055Z,0.00
2018-10-21T00:28:28.634Z,0.00
2018-10-21T00:29:28.034Z,0.00
2018-10-21T00:30:28.017Z,0.00
2018-10-21T00:31:28.171Z,0.00
2018-10-21T00:32:27.998Z,0.00
2018-10-21T00:33:27.981Z,0.00
2018-10-21T00:34:27.971Z,0.00
2018-10-21T00:35:27.967Z,0.00
2018-10-21T00:36:27.974Z,0.00
2018-10-21T00:37:28.635Z,0.00
2018-10-21T00:38:28.632Z,0.00
2018-10-21T00:39:27.930Z,0.00
2018-10-21T00:40:27.906Z,0.00
2018-10-21T00:41:28.158Z,0.00
2018-10-21T00:42:28.637Z,0.00
2018-10-21T00:43:27.869Z,0.00
2018-10-21T00:44:27.939Z,0.00
2018-10-21T00:45:28.636Z,0.00
2018-10-21T00:46:27.861Z,0.00
2018-10-21T00:47:27.841Z,0.00
2018-10-21T00:48:27.820Z,0.00
2018-10-21T00:49:28.638Z,0.00
2018-10-21T00:50:27.797Z,0.00
2018-10-21T00:51:27.797Z,0.00
2018-10-21T00:52:27.777Z,0.00
2018-10-21T00:53:27.779Z,0.00
2018-10-21T00:54:28.638Z,0.00
2018-10-21T00:55:28.635Z,0.00
2018-10-21T00:56:27.826Z,0.00
2018-10-21T00:57:27.790Z,0.00
2018-10-21T00:58:27.708Z,0.00
2018-10-21T00:59:28.636Z,0.00
2018-10-21T01:00:27.695Z,0.00
2018-10-21T01:01:28.152Z,0.00
2018-10-21T01:02:27.669Z,0.00
2018-10-21T01:03:27.660Z,0.00
2018-10-21T01:04:28.636Z,0.00
2018-10-21T01:05:28.133Z,0.00
2018-10-21T01:06:27.645Z,0.00
2018-10-21T01:07:27.623Z,0.00
2018-10-21T01:08:28.138Z,0.00
2018-10-21T01:09:27.592Z,0.00
2018-10-21T01:10:28.138Z,0.00
2018-10-21T01:11:27.596Z,0.00
2018-10-21T01:12:27.560Z,0.00
2018-10-21T01:13:27.548Z,0.00
2018-10-21T01:14:27.541Z,0.00
2018-10-21T01:15:27.530Z,0.00
2018-10-21T01:16:27.715Z,0.00
2018-10-21T01:17:28.208Z,0.00
2018-10-21T01:18:27.490Z,0.00
2018-10-21T01:19:28.145Z,0.00
2018-10-21T01:20:27.469Z,0.00
2018-10-21T01:21:27.478Z,0.00
2018-10-21T01:22:27.451Z,0.00
2018-10-21T01:23:27.465Z,0.00
2018-10-21T01:24:27.433Z,0.00
2018-10-21T01:25:27.421Z,0.00
2018-10-21T01:26:27.420Z,0.00
2018-10-21T01:27:27.402Z,0.00
2018-10-21T01:28:27.414Z,0.00
2018-10-21T01:29:27.374Z,0.00
2018-10-21T01:30:27.362Z,0.00
2018-10-21T01:31:27.380Z,0.00
2018-10-21T01:32:28.139Z,0.00
2018-10-21T01:33:28.196Z,0.00
2018-10-21T01:34:27.314Z,0.00
2018-10-21T01:35:28.135Z,0.00
2018-10-21T01:36:27.579Z,0.00
2018-10-21T01:37:27.328Z,0.00
2018-10-21T01:38:27.396Z,0.00
2018-10-21T01:39:28.136Z,0.00
2018-10-21T01:40:27.291Z,0.00
2018-10-21T01:41:27.651Z,0.00
2018-10-21T01:42:28.138Z,0.00
2018-10-21T01:43:27.243Z,0.00
2018-10-21T01:44:27.211Z,0.00
2018-10-21T01:45:28.141Z,0.00
2018-10-21T01:46:27.207Z,0.00
2018-10-21T01:47:27.178Z,0.00
2018-10-21T01:48:27.186Z,0.00
2018-10-21T01:49:27.158Z,0.00
2018-10-21T01:50:27.143Z,0.00
2018-10-21T01:51:27.262Z,0.00
2018-10-21T01:52:27.708Z,0.00
2018-10-21T01:53:27.644Z,0.00
2018-10-21T01:54:27.098Z,0.00
2018-10-21T01:55:27.091Z,0.00
2018-10-21T01:56:27.181Z,0.00
2018-10-21T01:57:27.080Z,0.00
2018-10-21T01:58:27.107Z,0.00
2018-10-21T01:59:27.048Z,0.00
2018-10-21T02:00:27.046Z,0.00
2018-10-21T02:01:27.153Z,0.00
2018-10-21T02:02:27.641Z,0.00
2018-10-21T02:03:27.011Z,0.00
2018-10-21T02:04:26.996Z,0.00
2018-10-21T02:05:26.987Z,0.00
2018-10-21T02:06:27.154Z,0.00
2018-10-21T02:07:26.965Z,0.00
2018-10-21T02:08:26.949Z,0.00
2018-10-21T02:09:26.936Z,0.00
2018-10-21T02:10:26.925Z,0.00
2018-10-21T02:11:27.162Z,0.00
2018-10-21T02:12:27.646Z,0.00
2018-10-21T02:13:26.893Z,0.00
2018-10-21T02:14:26.895Z,0.00
2018-10-21T02:15:27.640Z,0.00
2018-10-21T02:16:26.885Z,0.00
2018-10-21T02:17:27.644Z,0.00
2018-10-21T02:18:26.841Z,0.00
2018-10-21T02:19:27.642Z,0.00
2018-10-21T02:20:27.651Z,0.00
2018-10-21T02:21:26.821Z,0.00
2018-10-21T02:22:27.185Z,0.00
2018-10-21T02:23:27.688Z,0.00
2018-10-21T02:24:27.641Z,0.00
2018-10-21T02:25:26.772Z,0.00
2018-10-21T02:26:26.846Z,0.00
2018-10-21T02:27:27.151Z,0.00
2018-10-21T02:28:26.740Z,0.00
2018-10-21T02:29:26.734Z,0.00
2018-10-21T02:30:26.711Z,0.00
2018-10-21T02:31:26.703Z,0.00
2018-10-21T02:32:26.700Z,0.00
2018-10-21T02:33:27.073Z,0.00
2018-10-21T02:34:26.677Z,0.00
2018-10-21T02:35:26.655Z,0.00
2018-10-21T02:36:27.643Z,0.00
2018-10-21T02:37:26.665Z,0.00
2018-10-21T02:38:26.623Z,0.00
2018-10-21T02:39:26.612Z,0.00
2018-10-21T02:40:26.602Z,0.00
2018-10-21T02:41:26.595Z,0.00
2018-10-21T02:42:26.603Z,0.00
2018-10-21T02:43:26.573Z,0.00
2018-10-21T02:44:26.562Z,0.00
2018-10-21T02:45:26.548Z,0.00
2018-10-21T02:46:26.542Z,0.00
2018-10-21T02:47:26.655Z,0.00
2018-10-21T02:48:26.516Z,0.00
2018-10-21T02:49:26.500Z,0.00
2018-10-21T02:50:26.491Z,0.00
2018-10-21T02:51:26.479Z,0.00
2018-10-21T02:52:26.669Z,0.00
2018-10-21T02:53:27.141Z,0.00
2018-10-21T02:54:27.150Z,0.00
2018-10-21T02:55:27.138Z,0.00
2018-10-21T02:56:26.436Z,0.00
2018-10-21T02:57:26.595Z,0.00
2018-10-21T02:58:27.141Z,0.00
2018-10-21T02:59:27.145Z,0.00
2018-10-21T03:00:26.380Z,0.00
2018-10-21T03:01:27.144Z,0.00
2018-10-21T03:02:26.664Z,0.00
2018-10-21T03:03:26.349Z,0.00
2018-10-21T03:04:26.348Z,0.00
2018-10-21T03:05:26.329Z,0.00
2018-10-21T03:06:27.139Z,0.00
2018-10-21T03:07:26.380Z,0.00
2018-10-21T03:08:26.310Z,0.00
2018-10-21T03:09:26.308Z,0.00
2018-10-21T03:10:26.273Z,0.00
2018-10-21T03:11:26.265Z,0.00
2018-10-21T03:12:26.657Z,0.00
2018-10-21T03:13:26.242Z,0.00
2018-10-21T03:14:26.322Z,0.00
2018-10-21T03:15:26.218Z,0.00
2018-10-21T03:16:26.272Z,0.00
2018-10-21T03:17:26.659Z,0.00
2018-10-21T03:18:26.276Z,0.00
2018-10-21T03:19:26.206Z,0.00
2018-10-21T03:20:26.162Z,0.00
2018-10-21T03:21:27.147Z,0.00
2018-10-21T03:22:26.164Z,0.00
2018-10-21T03:23:26.133Z,0.00
2018-10-21T03:24:26.144Z,0.00
2018-10-21T03:25:26.643Z,0.00
2018-10-21T03:26:26.658Z,0.00
2018-10-21T03:27:26.101Z,0.00
2018-10-21T03:28:26.078Z,0.00
2018-10-21T03:29:26.076Z,0.00
2018-10-21T03:30:26.059Z,0.00
2018-10-21T03:31:26.041Z,0.00
2018-10-21T03:32:26.170Z,0.00
2018-10-21T03:33:26.209Z,0.00
2018-10-21T03:34:26.047Z,0.00
2018-10-21T03:35:26.003Z,0.00
2018-10-21T03:36:25.993Z,0.00
2018-10-21T03:37:25.989Z,0.00
2018-10-21T03:38:26.648Z,0.00
2018-10-21T03:39:25.981Z,0.00
2018-10-21T03:40:26.648Z,0.00
2018-10-21T03:41:25.942Z,0.00
2018-10-21T03:42:25.947Z,0.00
2018-10-21T03:43:25.913Z,0.00
2018-10-21T03:44:25.926Z,0.00
2018-10-21T03:45:25.899Z,0.00
2018-10-21T03:46:25.881Z,0.00
2018-10-21T03:47:25.894Z,0.00
2018-10-21T03:48:25.859Z,0.00
2018-10-21T03:49:25.862Z,0.00
2018-10-21T03:50:25.832Z,0.00
2018-10-21T03:51:26.644Z,0.00
2018-10-21T03:52:26.155Z,0.00
2018-10-21T03:53:26.649Z,0.00
2018-10-21T03:54:26.763Z,0.00
2018-10-21T03:55:26.655Z,0.00
2018-10-21T03:56:25.772Z,0.00
2018-10-21T03:57:25.776Z,0.00
2018-10-21T03:58:25.758Z,0.00
2018-10-21T03:59:26.711Z,0.00
2018-10-21T04:00:25.742Z,0.00
2018-10-21T04:01:26.647Z,0.00
2018-10-21T04:02:25.729Z,0.00
2018-10-21T04:03:25.700Z,0.00
2018-10-21T04:04:26.644Z,0.00
2018-10-21T04:05:25.685Z,0.00
2018-10-21T04:06:25.664Z,0.00
2018-10-21T04:07:25.820Z,0.00
2018-10-21T04:08:26.144Z,0.00
2018-10-21T04:09:25.631Z,0.00
2018-10-21T04:10:26.180Z,0.00
2018-10-21T04:11:25.608Z,0.00
2018-10-21T04:12:25.661Z,0.00
2018-10-21T04:13:25.589Z,0.00
2018-10-21T04:14:25.576Z,0.00
2018-10-21T04:15:25.578Z,0.00
2018-10-21T04:16:25.558Z,0.00
2018-10-21T04:17:25.573Z,0.00
2018-10-21T04:18:26.152Z,0.00
2018-10-21T04:19:26.142Z,0.00
2018-10-21T04:20:25.516Z,0.00
2018-10-21T04:21:25.499Z,0.00
2018-10-21T04:22:25.608Z,0.00
2018-10-21T04:23:25.478Z,0.00
2018-10-21T04:24:25.473Z,0.00
2018-10-21T04:25:25.478Z,0.00
2018-10-21T04:26:25.456Z,0.00
2018-10-21T04:27:25.690Z,0.00
2018-10-21T04:28:25.429Z,0.00
2018-10-21T04:29:26.180Z,0.00
2018-10-21T04:30:25.412Z,0.00
2018-10-21T04:31:26.146Z,0.00
2018-10-21T04:32:25.377Z,0.00
2018-10-21T04:33:25.668Z,0.00
2018-10-21T04:34:26.157Z,0.00
2018-10-21T04:35:26.462Z,0.00
2018-10-21T04:36:26.142Z,0.00
2018-10-21T04:37:25.322Z,0.00
2018-10-21T04:38:25.336Z,0.00
2018-10-21T04:39:25.307Z,0.00
2018-10-21T04:40:25.303Z,0.00
2018-10-21T04:41:25.279Z,0.00
2018-10-21T04:42:25.270Z,0.00
2018-10-21T04:43:25.279Z,0.00
2018-10-21T04:44:25.256Z,0.00
2018-10-21T04:45:25.295Z,0.00
2018-10-21T04:46:25.292Z,0.00
2018-10-21T04:47:25.216Z,0.00
2018-10-21T04:48:25.234Z,0.00
2018-10-21T04:49:25.191Z,0.00
2018-10-21T04:50:26.211Z,0.00
2018-10-21T04:51:25.166Z,0.00
2018-10-21T04:52:25.162Z,0.00
2018-10-21T04:53:25.168Z,0.00
2018-10-21T04:54:25.139Z,0.00
2018-10-21T04:55:25.154Z,0.00
2018-10-21T04:56:25.211Z,0.00
2018-10-21T04:57:25.658Z,0.00
2018-10-21T04:58:25.174Z,0.00
2018-10-21T04:59:25.089Z,0.00
2018-10-21T05:00:25.073Z,0.00
2018-10-21T05:01:25.066Z,0.00
2018-10-21T05:02:25.060Z,0.00
2018-10-21T05:03:25.055Z,0.00
2018-10-21T05:04:25.028Z,0.00
2018-10-21T05:05:25.652Z,0.00
2018-10-21T05:06:25.016Z,0.00
2018-10-21T05:07:25.024Z,0.00
2018-10-21T05:08:25.159Z,0.00
2018-10-21T05:09:25.649Z,0.00
2018-10-21T05:10:24.962Z,0.00
2018-10-21T05:11:24.958Z,0.00
2018-10-21T05:12:24.940Z,0.00
2018-10-21T05:13:24.961Z,0.00
2018-10-21T05:14:25.653Z,0.00
2018-10-21T05:15:24.916Z,0.00
2018-10-21T05:16:25.668Z,0.00
2018-10-21T05:17:24.889Z,0.00
2018-10-21T05:18:24.936Z,0.00
2018-10-21T05:19:24.868Z,0.00
2018-10-21T05:20:24.853Z,0.00
2018-10-21T05:21:25.655Z,0.00
2018-10-21T05:22:24.833Z,0.00
2018-10-21T05:23:24.837Z,0.00
2018-10-21T05:24:24.807Z,0.00
2018-10-21T05:25:24.804Z,0.00
2018-10-21T05:26:24.803Z,0.00
2018-10-21T05:27:25.649Z,0.00
2018-10-21T05:28:24.805Z,0.00
2018-10-21T05:29:24.757Z,0.00
2018-10-21T05:30:24.741Z,0.00
2018-10-21T05:31:24.743Z,0.00
2018-10-21T05:32:25.651Z,0.00
2018-10-21T05:33:24.749Z,0.00
2018-10-21T05:34:25.650Z,0.00
2018-10-21T05:35:25.650Z,0.00
2018-10-21T05:36:24.685Z,0.00
2018-10-21T05:37:24.675Z,0.00
2018-10-21T05:38:25.177Z,0.00
2018-10-21T05:39:24.650Z,0.00
2018-10-21T05:40:25.202Z,0.00
2018-10-21T05:41:24.625Z,0.00
2018-10-21T05:42:24.615Z,0.00
2018-10-21T05:43:24.668Z,0.00
2018-10-21T05:44:25.153Z,0.00
2018-10-21T05:45:24.601Z,0.00
2018-10-21T05:46:24.572Z,0.00
2018-10-21T05:47:24.558Z,0.00
2018-10-21T05:48:24.568Z,0.00
2018-10-21T05:49:25.161Z,0.00
2018-10-21T05:50:24.536Z,0.00
2018-10-21T05:51:24.511Z,0.00
2018-10-21T05:52:25.162Z,0.00
2018-10-21T05:53:24.514Z,0.00
2018-10-21T05:54:25.157Z,0.00
2018-10-21T05:55:25.151Z,0.00
2018-10-21T05:56:25.158Z,0.00
2018-10-21T05:57:24.444Z,0.00
2018-10-21T05:58:24.827Z,0.00
2018-10-21T05:59:24.424Z,0.00
2018-10-21T06:00:24.423Z,0.00
2018-10-21T06:01:25.160Z,0.00
2018-10-21T06:02:25.153Z,0.00
2018-10-21T06:03:24.667Z,0.00
2018-10-21T06:04:24.381Z,0.00
2018-10-21T06:05:24.365Z,0.00
2018-10-21T06:06:24.352Z,0.00
2018-10-21T06:07:24.351Z,0.00
2018-10-21T06:08:24.437Z,0.00
2018-10-21T06:09:24.320Z,4.00
2018-10-21T06:10:24.319Z,4.00
2018-10-21T06:11:24.299Z,4.00
2018-10-21T06:12:25.175Z,4.00
2018-10-21T06:13:24.302Z,4.00
2018-10-21T06:14:24.266Z,4.00
2018-10-21T06:15:24.254Z,4.00
2018-10-21T06:16:25.290Z,4.00
2018-10-21T06:17:24.244Z,0.00
2018-10-21T06:18:24.663Z,4.00
2018-10-21T06:19:24.209Z,4.00
2018-10-21T06:20:25.171Z,4.00
2018-10-21T06:21:24.183Z,4.00
2018-10-21T06:22:24.206Z,4.00
2018-10-21T06:23:24.183Z,8.00
2018-10-21T06:24:24.153Z,4.00
2018-10-21T06:25:24.164Z,8.00
2018-10-21T06:26:24.133Z,8.00
2018-10-21T06:27:24.180Z,4.00
2018-10-21T06:28:24.132Z,8.00
2018-10-21T06:29:24.663Z,8.00
2018-10-21T06:30:24.085Z,12.00
2018-10-21T06:31:24.075Z,8.00
2018-10-21T06:32:24.092Z,8.00
2018-10-21T06:33:24.080Z,12.00
2018-10-21T06:34:24.049Z,8.00
2018-10-21T06:35:24.048Z,12.00
2018-10-21T06:36:24.031Z,12.00
2018-10-21T06:37:24.024Z,12.00
2018-10-21T06:38:24.041Z,16.00
2018-10-21T06:39:24.660Z,12.00
2018-10-21T06:40:24.661Z,16.00
2018-10-21T06:41:23.975Z,16.00
2018-10-21T06:42:24.012Z,16.00
2018-10-21T06:43:24.126Z,20.00
2018-10-21T06:44:23.936Z,16.00
2018-10-21T06:45:24.862Z,20.00
2018-10-21T06:46:23.915Z,24.00
2018-10-21T06:47:24.051Z,20.00
2018-10-21T06:48:23.925Z,24.00
2018-10-21T06:49:23.993Z,24.00
2018-10-21T06:50:23.874Z,24.00
2018-10-21T06:51:23.867Z,24.00
2018-10-21T06:52:23.862Z,28.00
2018-10-21T06:53:24.671Z,28.00
2018-10-21T06:54:24.168Z,32.00
2018-10-21T06:55:23.821Z,28.00
2018-10-21T06:56:23.834Z,32.00
2018-10-21T06:57:23.954Z,32.00
2018-10-21T06:58:24.657Z,36.00
2018-10-21T06:59:24.178Z,32.00
2018-10-21T07:00:24.662Z,36.00
2018-10-21T07:01:23.744Z,40.00
2018-10-21T07:02:23.749Z,36.00
2018-10-21T07:03:23.730Z,40.00
2018-10-21T07:04:24.201Z,40.00
2018-10-21T07:05:23.706Z,44.00
2018-10-21T07:06:23.698Z,44.00
2018-10-21T07:07:23.682Z,48.00
2018-10-21T07:08:23.670Z,44.00
2018-10-21T07:09:23.701Z,48.00
2018-10-21T07:10:23.652Z,48.00
2018-10-21T07:11:24.156Z,52.00
2018-10-21T07:12:23.630Z,48.00
2018-10-21T07:13:23.620Z,52.00
2018-10-21T07:14:23.629Z,52.00
2018-10-21T07:15:24.184Z,56.00
2018-10-21T07:16:23.655Z,56.00
2018-10-21T07:17:23.576Z,56.00
2018-10-21T07:18:24.154Z,60.00
2018-10-21T07:19:23.561Z,60.00
2018-10-21T07:20:24.161Z,60.00
2018-10-21T07:21:23.529Z,60.00
2018-10-21T07:22:23.524Z,64.00
2018-10-21T07:23:24.158Z,60.00
2018-10-21T07:24:23.529Z,64.00
2018-10-21T07:25:24.162Z,68.00
2018-10-21T07:26:23.480Z,68.00
2018-10-21T07:27:23.463Z,68.00
2018-10-21T07:28:23.478Z,68.00
2018-10-21T07:29:23.681Z,72.00
2018-10-21T07:30:23.424Z,72.00
2018-10-21T07:31:23.418Z,76.00
2018-10-21T07:32:23.404Z,76.00
2018-10-21T07:33:24.157Z,76.00
2018-10-21T07:34:23.408Z,76.00
2018-10-21T07:35:23.370Z,76.00
2018-10-21T07:36:23.416Z,80.00
2018-10-21T07:37:23.347Z,80.00
2018-10-21T07:38:23.348Z,84.00
2018-10-21T07:39:23.675Z,84.00
2018-10-21T07:40:23.332Z,84.00
2018-10-21T07:41:24.159Z,88.00
2018-10-21T07:42:23.294Z,84.00
2018-10-21T07:43:23.280Z,88.00
2018-10-21T07:44:23.574Z,88.00
2018-10-21T07:45:23.261Z,88.00
2018-10-21T07:46:24.154Z,92.00
2018-10-21T07:47:24.164Z,88.00
2018-10-21T07:48:23.223Z,92.00
2018-10-21T07:49:23.678Z,96.00
2018-10-21T07:50:23.208Z,96.00
2018-10-21T07:51:23.195Z,96.00
2018-10-21T07:52:23.181Z,100.00
2018-10-21T07:53:23.176Z,96.00
2018-10-21T07:54:23.184Z,100.00
2018-10-21T07:55:23.242Z,100.00
2018-10-21T07:56:23.135Z,100.00
2018-10-21T07:57:23.658Z,104.00
2018-10-21T07:58:23.664Z,100.00
2018-10-21T07:59:23.178Z,104.00
2018-10-21T08:00:23.096Z,104.00
2018-10-21T08:01:23.102Z,104.00
2018-10-21T08:02:23.681Z,108.00
2018-10-21T08:03:23.664Z,108.00
2018-10-21T08:04:23.178Z,112.00
2018-10-21T08:05:23.034Z,112.00
2018-10-21T08:06:23.023Z,112.00
2018-10-21T08:07:23.020Z,112.00
2018-10-21T08:08:23.005Z,116.00
2018-10-21T08:09:23.677Z,116.00
2018-10-21T08:10:23.662Z,116.00
2018-10-21T08:11:22.968Z,116.00
2018-10-21T08:12:22.958Z,116.00
2018-10-21T08:13:22.950Z,120.00
2018-10-21T08:14:23.173Z,120.00
2018-10-21T08:15:22.939Z,124.00
2018-10-21T08:16:22.915Z,120.00
2018-10-21T08:17:22.902Z,124.00
2018-10-21T08:18:22.892Z,124.00
2018-10-21T08:19:23.180Z,124.00
2018-10-21T08:20:22.875Z,128.00
2018-10-21T08:21:22.911Z,128.00
2018-10-21T08:22:23.659Z,128.00
2018-10-21T08:23:22.838Z,132.00
2018-10-21T08:24:22.843Z,128.00
2018-10-21T08:25:23.658Z,132.00
2018-10-21T08:26:23.666Z,136.00
2018-10-21T08:27:22.874Z,132.00
2018-10-21T08:28:23.660Z,136.00
2018-10-21T08:29:22.783Z,132.00
2018-10-21T08:30:23.662Z,136.00
2018-10-21T08:31:22.750Z,140.00
2018-10-21T08:32:22.734Z,140.00
2018-10-21T08:33:22.725Z,140.00
2018-10-21T08:34:22.742Z,140.00
2018-10-21T08:35:22.703Z,140.00
2018-10-21T08:36:22.693Z,140.00
2018-10-21T08:37:22.687Z,144.00
2018-10-21T08:38:22.668Z,144.00
2018-10-21T08:39:22.669Z,144.00
2018-10-21T08:40:22.662Z,148.00
2018-10-21T08:41:22.637Z,148.00
2018-10-21T08:42:23.164Z,148.00
2018-10-21T08:43:23.164Z,148.00
2018-10-21T08:44:22.605Z,148.00
2018-10-21T08:45:22.603Z,148.00
2018-10-21T08:46:22.719Z,152.00
2018-10-21T08:47:23.160Z,152.00
2018-10-21T08:48:22.578Z,152.00
2018-10-21T08:49:22.596Z,152.00
2018-10-21T08:50:22.550Z,152.00
2018-10-21T08:51:22.538Z,152.00
2018-10-21T08:52:22.515Z,156.00
2018-10-21T08:53:22.509Z,160.00
2018-10-21T08:54:23.169Z,156.00
2018-10-21T08:55:22.599Z,160.00
2018-10-21T08:56:22.473Z,160.00
2018-10-21T08:57:23.169Z,160.00
2018-10-21T08:58:22.465Z,160.00
2018-10-21T08:59:23.162Z,164.00
2018-10-21T09:00:22.676Z,160.00
2018-10-21T09:01:22.424Z,164.00
2018-10-21T09:02:22.408Z,164.00
2018-10-21T09:03:22.401Z,164.00
2018-10-21T09:04:22.384Z,164.00
2018-10-21T09:05:22.395Z,164.00
2018-10-21T09:06:22.360Z,164.00
2018-10-21T09:07:22.353Z,168.00
2018-10-21T09:08:22.347Z,168.00
2018-10-21T09:09:22.328Z,168.00
2018-10-21T09:10:22.556Z,168.00
2018-10-21T09:11:22.312Z,168.00
2018-10-21T09:12:22.296Z,168.00
2018-10-21T09:13:22.294Z,168.00
2018-10-21T09:14:22.277Z,168.00
2018-10-21T09:15:22.495Z,172.00
2018-10-21T09:16:23.205Z,172.00
2018-10-21T09:17:22.239Z,172.00
2018-10-21T09:18:22.234Z,172.00
2018-10-21T09:19:23.166Z,176.00
2018-10-21T09:20:22.693Z,176.00
2018-10-21T09:21:22.208Z,172.00
2018-10-21T09:22:22.185Z,172.00
2018-10-21T09:23:22.175Z,172.00
2018-10-21T09:24:22.162Z,176.00
2018-10-21T09:25:22.169Z,176.00
2018-10-21T09:26:22.147Z,176.00
2018-10-21T09:27:22.673Z,176.00
2018-10-21T09:28:22.671Z,176.00
2018-10-21T09:29:22.665Z,176.00
2018-10-21T09:30:22.708Z,176.00
2018-10-21T09:31:22.093Z,180.00
2018-10-21T09:32:22.071Z,180.00
2018-10-21T09:33:22.751Z,176.00
2018-10-21T09:34:22.052Z,180.00
2018-10-21T09:35:22.079Z,180.00
2018-10-21T09:36:22.032Z,180.00
2018-10-21T09:37:22.663Z,180.00
2018-10-21T09:38:22.676Z,184.00
2018-10-21T09:39:21.999Z,184.00
2018-10-21T09:40:22.185Z,180.00
2018-10-21T09:41:21.973Z,180.00
2018-10-21T09:42:21.972Z,184.00
2018-10-21T09:43:21.957Z,188.00
2018-10-21T09:44:21.954Z,184.00
2018-10-21T09:45:22.187Z,188.00
2018-10-21T09:46:21.921Z,184.00
2018-10-21T09:47:22.663Z,184.00
2018-10-21T09:48:21.895Z,184.00
2018-10-21T09:49:21.889Z,188.00
2018-10-21T09:50:22.129Z,184.00
2018-10-21T09:51:21.863Z,188.00
2018-10-21T09:52:21.852Z,188.00
2018-10-21T09:53:21.844Z,188.00
2018-10-21T09:54:21.835Z,188.00
2018-10-21T09:55:21.861Z,188.00
2018-10-21T09:56:21.836Z,188.00
2018-10-21T09:57:21.800Z,188.00
2018-10-21T09:58:22.671Z,192.00
2018-10-21T09:59:21.779Z,192.00
2018-10-21T10:00:21.814Z,192.00
2018-10-21T10:01:21.756Z,192.00
2018-10-21T10:02:21.743Z,188.00
2018-10-21T10:03:21.729Z,188.00
2018-10-21T10:04:21.791Z,188.00
2018-10-21T10:05:21.806Z,192.00
2018-10-21T10:06:21.718Z,192.00
2018-10-21T10:07:21.687Z,192.00
2018-10-21T10:08:21.676Z,192.00
2018-10-21T10:09:21.660Z,192.00
2018-10-21T10:10:21.689Z,192.00
2018-10-21T10:11:21.721Z,192.00
2018-10-21T10:12:22.166Z,192.00
2018-10-21T10:13:21.625Z,192.00
2018-10-21T10:14:21.609Z,192.00
2018-10-21T10:15:21.617Z,192.00
2018-10-21T10:16:21.632Z,192.00
2018-10-21T10:17:21.575Z,192.00
2018-10-21T10:18:21.562Z,192.00
2018-10-21T10:19:21.555Z,196.00
2018-10-21T10:20:21.560Z,192.00
2018-10-21T10:21:22.210Z,196.00
2018-10-21T10:22:21.517Z,192.00
2018-10-21T10:23:21.583Z,196.00
2018-10-21T10:24:22.165Z,196.00
2018-10-21T10:25:21.508Z,192.00
2018-10-21T10:26:21.505Z,192.00
2018-10-21T10:27:21.462Z,192.00
2018-10-21T10:28:21.450Z,192.00
2018-10-21T10:29:21.441Z,192.00
2018-10-21T10:30:21.742Z,192.00
2018-10-21T10:31:21.431Z,192.00
2018-10-21T10:32:22.168Z,192.00
2018-10-21T10:33:22.164Z,196.00
2018-10-21T10:34:21.384Z,196.00
2018-10-21T10:35:21.682Z,200.00
2018-10-21T10:36:21.473Z,196.00
2018-10-21T10:37:22.167Z,196.00
2018-10-21T10:38:22.180Z,192.00
2018-10-21T10:39:21.329Z,192.00
2018-10-21T10:40:21.683Z,196.00
2018-10-21T10:41:22.198Z,196.00
2018-10-21T10:42:21.324Z,196.00
2018-10-21T10:43:22.172Z,196.00
2018-10-21T10:44:21.283Z,196.00
2018-10-21T10:45:21.280Z,196.00
2018-10-21T10:46:21.304Z,196.00
2018-10-21T10:47:21.242Z,196.00
2018-10-21T10:48:21.238Z,196.00
2018-10-21T10:49:22.194Z,196.00
2018-10-21T10:50:21.684Z,200.00
2018-10-21T10:51:21.221Z,196.00
2018-10-21T10:52:22.180Z,196.00
2018-10-21T10:53:22.168Z,196.00
2018-10-21T10:54:21.169Z,196.00
2018-10-21T10:55:21.686Z,200.00
2018-10-21T10:56:21.727Z,200.00
2018-10-21T10:57:21.132Z,196.00
2018-10-21T10:58:21.122Z,196.00
2018-10-21T10:59:21.125Z,196.00
2018-10-21T11:00:21.109Z,196.00
2018-10-21T11:01:21.183Z,196.00
2018-10-21T11:02:21.082Z,200.00
2018-10-21T11:03:21.075Z,196.00
2018-10-21T11:04:21.074Z,196.00
2018-10-21T11:05:21.051Z,196.00
2018-10-21T11:06:21.098Z,196.00
2018-10-21T11:07:21.028Z,196.00
2018-10-21T11:08:21.017Z,196.00
2018-10-21T11:09:21.006Z,200.00
2018-10-21T11:10:21.002Z,200.00
2018-10-21T11:11:21.023Z,196.00
2018-10-21T11:12:21.664Z,196.00
2018-10-21T11:13:21.675Z,200.00
2018-10-21T11:14:21.670Z,192.00
2018-10-21T11:15:21.674Z,196.00
2018-10-21T11:16:21.193Z,196.00
2018-10-21T11:17:21.673Z,196.00
2018-10-21T11:18:21.663Z,196.00
2018-10-21T11:19:20.896Z,200.00
2018-10-21T11:20:20.891Z,200.00
2018-10-21T11:21:21.181Z,196.00
2018-10-21T11:22:20.972Z,196.00
2018-10-21T11:23:21.669Z,196.00
2018-10-21T11:24:20.846Z,196.00
2018-10-21T11:25:20.974Z,196.00
2018-10-21T11:26:20.844Z,196.00
2018-10-21T11:27:20.808Z,192.00
2018-10-21T11:28:20.894Z,196.00
2018-10-21T11:29:20.790Z,196.00
2018-10-21T11:30:20.783Z,196.00
2018-10-21T11:31:20.819Z,196.00
2018-10-21T11:32:20.831Z,196.00
2018-10-21T11:33:20.740Z,196.00
2018-10-21T11:34:20.741Z,192.00
2018-10-21T11:35:21.670Z,192.00
2018-10-21T11:36:20.739Z,196.00
2018-10-21T11:37:20.880Z,196.00
2018-10-21T11:38:20.687Z,196.00
2018-10-21T11:39:20.681Z,192.00
2018-10-21T11:40:20.665Z,192.00
2018-10-21T11:41:20.678Z,196.00
2018-10-21T11:42:20.647Z,192.00
2018-10-21T11:43:20.634Z,192.00
2018-10-21T11:44:20.622Z,192.00
2018-10-21T11:45:20.613Z,192.00
2018-10-21T11:46:20.623Z,192.00
2018-10-21T11:47:20.595Z,192.00
2018-10-21T11:48:21.177Z,192.00
2018-10-21T11:49:20.571Z,192.00
2018-10-21T11:50:21.167Z,192.00
2018-10-21T11:51:20.669Z,196.00
2018-10-21T11:52:20.655Z,192.00
2018-10-21T11:53:20.524Z,192.00
2018-10-21T11:54:21.180Z,192.00
2018-10-21T11:55:21.172Z,192.00
2018-10-21T11:56:20.523Z,192.00
2018-10-21T11:57:20.485Z,192.00
2018-10-21T11:58:20.469Z,192.00
2018-10-21T11:59:21.174Z,188.00
2018-10-21T12:00:21.178Z,188.00
2018-10-21T12:01:20.464Z,188.00
2018-10-21T12:02:20.425Z,192.00
2018-10-21T12:03:21.171Z,188.00
2018-10-21T12:04:20.405Z,184.00
2018-10-21T12:05:20.395Z,188.00
2018-10-21T12:06:20.404Z,184.00
2018-10-21T12:07:20.376Z,188.00
2018-10-21T12:08:20.359Z,184.00
2018-10-21T12:09:20.349Z,188.00
2018-10-21T12:10:20.337Z,188.00
2018-10-21T12:11:20.693Z,184.00
2018-10-21T12:12:21.172Z,184.00
2018-10-21T12:13:21.174Z,184.00
2018-10-21T12:14:20.296Z,184.00
2018-10-21T12:15:20.292Z,184.00
2018-10-21T12:16:20.302Z,184.00
2018-10-21T12:17:20.270Z,184.00
2018-10-21T12:18:20.253Z,180.00
2018-10-21T12:19:20.245Z,180.00
2018-10-21T12:20:20.230Z,180.00
2018-10-21T12:21:20.692Z,180.00
2018-10-21T12:22:20.345Z,180.00
2018-10-21T12:23:20.224Z,184.00
2018-10-21T12:24:20.185Z,184.00
2018-10-21T12:25:20.345Z,180.00
2018-10-21T12:26:20.188Z,180.00
2018-10-21T12:27:20.154Z,180.00
2018-10-21T12:28:20.211Z,176.00
2018-10-21T12:29:20.176Z,176.00
2018-10-21T12:30:20.672Z,172.00
2018-10-21T12:31:20.138Z,176.00
2018-10-21T12:32:20.102Z,176.00
2018-10-21T12:33:20.671Z,176.00
2018-10-21T12:34:20.082Z,172.00
2018-10-21T12:35:20.155Z,172.00
2018-10-21T12:36:20.088Z,172.00
2018-10-21T12:37:20.049Z,172.00
2018-10-21T12:38:20.038Z,172.00
2018-10-21T12:39:20.025Z,172.00
2018-10-21T12:40:20.016Z,172.00
2018-10-21T12:41:20.191Z,172.00
2018-10-21T12:42:19.993Z,168.00
2018-10-21T12:43:19.983Z,168.00
2018-10-21T12:44:19.972Z,168.00
2018-10-21T12:45:20.046Z,168.00
2018-10-21T12:46:19.965Z,164.00
2018-10-21T12:47:20.675Z,168.00
2018-10-21T12:48:19.942Z,168.00
2018-10-21T12:49:19.942Z,168.00
2018-10-21T12:50:19.905Z,164.00
2018-10-21T12:51:20.674Z,160.00
2018-10-21T12:52:20.184Z,164.00
2018-10-21T12:53:19.884Z,164.00
2018-10-21T12:54:20.743Z,164.00
2018-10-21T12:55:20.689Z,164.00